sensor_id;sensor_type;location;lat;lon;timestamp;pressure;altitude;pressure_sealevel;temperature;humidity
28004;BME280;15330;51.234;6.754;2023-04-08T00:00:00;101682.56;;;8.87;100.00
28004;BME280;15330;51.234;6.754;2023-04-08T00:02:26;101680.34;;;8.92;100.00
28004;BME280;15330;51.234;6.754;2023-04-08T00:04:51;101676.78;;;8.81;100.00
28004;BME280;15330;51.234;6.754;2023-04-08T00:07:17;101680.75;;;8.87;100.00
28004;BME280;15330;51.234;6.754;2023-04-08T00:09:42;101671.50;;;8.91;100.00
28004;BME280;15330;51.234;6.754;2023-04-08T00:12:07;101680.44;;;8.80;100.00
28004;BME280;15330;51.234;6.754;2023-04-08T00:14:33;101686.63;;;8.81;100.00
28004;BME280;15330;51.234;6.754;2023-04-08T00:16:59;101677.47;;;8.83;100.00
28004;BME280;15330;51.234;6.754;2023-04-08T00:19:27;101680.00;;;8.85;100.00
28004;BME280;15330;51.234;6.754;2023-04-08T00:21:53;101678.91;;;8.88;100.00
28004;BME280;15330;51.234;6.754;2023-04-08T00:24:18;101677.75;;;8.80;100.00
28004;BME280;15330;51.234;6.754;2023-04-08T00:26:44;101678.19;;;8.86;100.00
28004;BME280;15330;51.234;6.754;2023-04-08T00:29:09;101685.22;;;8.87;100.00
28004;BME280;15330;51.234;6.754;2023-04-08T00:31:35;101682.13;;;8.81;100.00
28004;BME280;15330;51.234;6.754;2023-04-08T00:34:00;101690.19;;;8.91;100.00
28004;BME280;15330;51.234;6.754;2023-04-08T00:36:26;101684.13;;;8.89;100.00
28004;BME280;15330;51.234;6.754;2023-04-08T00:38:51;101680.31;;;8.82;100.00
28004;BME280;15330;51.234;6.754;2023-04-08T00:41:17;101683.66;;;8.84;100.00
28004;BME280;15330;51.234;6.754;2023-04-08T00:43:42;101675.41;;;8.87;100.00
28004;BME280;15330;51.234;6.754;2023-04-08T00:46:08;101686.78;;;8.89;100.00
28004;BME280;15330;51.234;6.754;2023-04-08T00:48:34;101689.13;;;8.82;100.00
28004;BME280;15330;51.234;6.754;2023-04-08T00:50:59;101683.28;;;8.68;100.00
28004;BME280;15330;51.234;6.754;2023-04-08T00:53:25;101675.94;;;8.81;100.00
28004;BME280;15330;51.234;6.754;2023-04-08T00:55:50;101682.56;;;8.87;100.00
28004;BME280;15330;51.234;6.754;2023-04-08T00:58:16;101685.09;;;8.88;100.00
28004;BME280;15330;51.234;6.754;2023-04-08T01:00:49;101684.31;;;8.76;100.00
28004;BME280;15330;51.234;6.754;2023-04-08T01:06:44;101689.13;;;8.82;100.00
28004;BME280;15330;51.234;6.754;2023-04-08T01:09:17;101690.38;;;8.78;100.00
28004;BME280;15330;51.234;6.754;2023-04-08T01:11:45;101695.91;;;8.87;100.00
28004;BME280;15330;51.234;6.754;2023-04-08T01:14:19;101693.78;;;8.80;100.00
28004;BME280;15330;51.234;6.754;2023-04-08T01:16:45;101693.28;;;8.75;100.00
28004;BME280;15330;51.234;6.754;2023-04-08T01:19:19;101691.09;;;8.80;100.00
28004;BME280;15330;51.234;6.754;2023-04-08T01:21:46;101694.88;;;8.78;100.00
28004;BME280;15330;51.234;6.754;2023-04-08T01:24:25;101694.16;;;8.76;100.00
28004;BME280;15330;51.234;6.754;2023-04-08T01:26:53;101693.63;;;8.82;100.00
28004;BME280;15330;51.234;6.754;2023-04-08T01:29:21;101696.88;;;8.86;100.00
28004;BME280;15330;51.234;6.754;2023-04-08T01:31:48;101702.03;;;8.77;100.00
28004;BME280;15330;51.234;6.754;2023-04-08T01:34:15;101699.47;;;8.76;100.00
28004;BME280;15330;51.234;6.754;2023-04-08T01:36:43;101702.75;;;8.79;100.00
28004;BME280;15330;51.234;6.754;2023-04-08T01:39:09;101702.75;;;8.79;100.00
28004;BME280;15330;51.234;6.754;2023-04-08T01:41:36;101704.16;;;8.83;100.00
28004;BME280;15330;51.234;6.754;2023-04-08T01:44:03;101701.91;;;8.79;100.00
28004;BME280;15330;51.234;6.754;2023-04-08T01:46:30;101703.13;;;8.75;100.00
28004;BME280;15330;51.234;6.754;2023-04-08T01:48:57;101700.63;;;8.83;100.00
28004;BME280;15330;51.234;6.754;2023-04-08T01:51:24;101704.03;;;8.85;100.00
28004;BME280;15330;51.234;6.754;2023-04-08T01:53:51;101700.78;;;8.81;100.00
28004;BME280;15330;51.234;6.754;2023-04-08T01:56:19;101706.13;;;8.81;100.00
28004;BME280;15330;51.234;6.754;2023-04-08T01:58:49;101700.84;;;8.91;100.00
28004;BME280;15330;51.234;6.754;2023-04-08T02:01:19;101703.19;;;8.84;100.00
28004;BME280;15330;51.234;6.754;2023-04-08T02:03:46;101708.06;;;8.79;100.00
28004;BME280;15330;51.234;6.754;2023-04-08T02:06:12;101708.44;;;8.75;100.00
28004;BME280;15330;51.234;6.754;2023-04-08T02:08:37;101703.97;;;8.75;100.00
28004;BME280;15330;51.234;6.754;2023-04-08T02:11:03;101708.06;;;8.79;100.00
28004;BME280;15330;51.234;6.754;2023-04-08T02:13:29;101701.34;;;8.85;100.00
28004;BME280;15330;51.234;6.754;2023-04-08T02:16:23;101709.72;;;8.92;100.00
28004;BME280;15330;51.234;6.754;2023-04-08T02:18:58;101703.06;;;8.86;100.00
28004;BME280;15330;51.234;6.754;2023-04-08T02:21:31;101708.25;;;8.88;100.00
28004;BME280;15330;51.234;6.754;2023-04-08T02:23:58;101705.97;;;8.83;100.00
28004;BME280;15330;51.234;6.754;2023-04-08T02:26:26;101702.81;;;8.89;100.00
28004;BME280;15330;51.234;6.754;2023-04-08T02:28:53;101704.75;;;8.87;100.00
28004;BME280;15330;51.234;6.754;2023-04-08T02:31:19;101705.72;;;8.86;100.00
28004;BME280;15330;51.234;6.754;2023-04-08T02:33:45;101710.94;;;8.88;100.00
28004;BME280;15330;51.234;6.754;2023-04-08T02:36:13;101706.06;;;8.93;100.00
28004;BME280;15330;51.234;6.754;2023-04-08T02:38:39;101709.44;;;8.95;100.00
28004;BME280;15330;51.234;6.754;2023-04-08T02:41:05;101713.22;;;8.92;100.00
28004;BME280;15330;51.234;6.754;2023-04-08T02:43:30;101708.53;;;8.84;100.00
28004;BME280;15330;51.234;6.754;2023-04-08T02:46:00;101711.66;;;8.90;100.00
28004;BME280;15330;51.234;6.754;2023-04-08T02:48:28;101707.72;;;8.94;100.00
28004;BME280;15330;51.234;6.754;2023-04-08T02:50:53;101709.56;;;8.93;100.00
28004;BME280;15330;51.234;6.754;2023-04-08T02:53:19;101710.41;;;8.94;100.00
28004;BME280;15330;51.234;6.754;2023-04-08T02:55:44;101706.88;;;8.93;100.00
28004;BME280;15330;51.234;6.754;2023-04-08T02:58:09;101705.06;;;8.94;100.00
28004;BME280;15330;51.234;6.754;2023-04-08T03:00:35;101712.56;;;9.00;100.00
28004;BME280;15330;51.234;6.754;2023-04-08T03:03:03;101715.59;;;8.95;100.00
28004;BME280;15330;51.234;6.754;2023-04-08T03:05:29;101717.72;;;8.92;100.00
28004;BME280;15330;51.234;6.754;2023-04-08T03:07:54;101718.56;;;8.92;100.00
28004;BME280;15330;51.234;6.754;2023-04-08T03:10:19;101723.31;;;8.89;100.00
28004;BME280;15330;51.234;6.754;2023-04-08T03:12:45;101725.25;;;8.87;100.00
28004;BME280;15330;51.234;6.754;2023-04-08T03:15:10;101720.75;;;8.87;100.00
28004;BME280;15330;51.234;6.754;2023-04-08T03:17:36;101728.03;;;8.85;100.00
28004;BME280;15330;51.234;6.754;2023-04-08T03:20:01;101729.50;;;8.89;100.00
28004;BME280;15330;51.234;6.754;2023-04-08T03:22:29;101729.63;;;8.88;100.00
28004;BME280;15330;51.234;6.754;2023-04-08T03:24:54;101724.16;;;8.89;100.00
28004;BME280;15330;51.234;6.754;2023-04-08T03:27:20;101721.66;;;8.76;100.00
28004;BME280;15330;51.234;6.754;2023-04-08T03:29:45;101717.25;;;8.87;100.00
28004;BME280;15330;51.234;6.754;2023-04-08T03:32:11;101722.59;;;8.87;100.00
28004;BME280;15330;51.234;6.754;2023-04-08T03:34:36;101722.22;;;8.91;100.00
28004;BME280;15330;51.234;6.754;2023-04-08T03:37:01;101723.50;;;8.97;100.00
28004;BME280;15330;51.234;6.754;2023-04-08T03:39:27;101723.50;;;8.97;100.00
28004;BME280;15330;51.234;6.754;2023-04-08T03:41:53;101732.59;;;8.94;100.00
28004;BME280;15330;51.234;6.754;2023-04-08T03:44:19;101732.22;;;8.99;100.00
28004;BME280;15330;51.234;6.754;2023-04-08T03:46:44;101729.13;;;9.03;100.00
28004;BME280;15330;51.234;6.754;2023-04-08T03:49:10;101725.91;;;9.00;100.00
28004;BME280;15330;51.234;6.754;2023-04-08T03:51:35;101736.47;;;9.01;100.00
28004;BME280;15330;51.234;6.754;2023-04-08T03:54:00;101731.97;;;9.02;100.00
28004;BME280;15330;51.234;6.754;2023-04-08T03:56:26;101731.97;;;9.02;100.00
28004;BME280;15330;51.234;6.754;2023-04-08T03:58:51;101735.88;;;8.98;100.00
28004;BME280;15330;51.234;6.754;2023-04-08T04:01:17;101740.94;;;9.01;100.00
28004;BME280;15330;51.234;6.754;2023-04-08T04:03:42;101731.19;;;8.90;100.00
28004;BME280;15330;51.234;6.754;2023-04-08T04:06:07;101728.50;;;8.90;100.00
28004;BME280;15330;51.234;6.754;2023-04-08T04:08:33;101738.22;;;8.91;100.00
28004;BME280;15330;51.234;6.754;2023-04-08T04:10:58;101731.06;;;8.92;100.00
28004;BME280;15330;51.234;6.754;2023-04-08T04:13:24;101736.84;;;8.97;100.00
28004;BME280;15330;51.234;6.754;2023-04-08T04:15:49;101741.31;;;9.17;100.00
28004;BME280;15330;51.234;6.754;2023-04-08T04:18:15;101740.16;;;9.31;100.00
28004;BME280;15330;51.234;6.754;2023-04-08T04:20:41;101746.88;;;9.35;100.00
28004;BME280;15330;51.234;6.754;2023-04-08T04:23:07;101752.31;;;9.44;100.00
28004;BME280;15330;51.234;6.754;2023-04-08T04:25:33;101752.31;;;9.44;100.00
28004;BME280;15330;51.234;6.754;2023-04-08T04:27:58;101758.16;;;9.38;100.00
28004;BME280;15330;51.234;6.754;2023-04-08T04:30:24;101760.91;;;9.27;100.00
28004;BME280;15330;51.234;6.754;2023-04-08T04:32:50;101766.97;;;9.29;100.00
28004;BME280;15330;51.234;6.754;2023-04-08T04:35:15;101764.91;;;9.12;100.00
28004;BME280;15330;51.234;6.754;2023-04-08T04:37:41;101763.59;;;9.06;100.00
28004;BME280;15330;51.234;6.754;2023-04-08T04:40:06;101768.47;;;8.80;100.00
28004;BME280;15330;51.234;6.754;2023-04-08T04:42:32;101770.84;;;8.83;100.00
28004;BME280;15330;51.234;6.754;2023-04-08T04:44:57;101772.22;;;8.78;100.00
28004;BME280;15330;51.234;6.754;2023-04-08T04:47:23;101771.94;;;8.60;100.00
28004;BME280;15330;51.234;6.754;2023-04-08T04:49:49;101765.03;;;8.58;100.00
28004;BME280;15330;51.234;6.754;2023-04-08T04:52:14;101780.44;;;8.54;100.00
28004;BME280;15330;51.234;6.754;2023-04-08T04:54:39;101770.56;;;8.66;100.00
28004;BME280;15330;51.234;6.754;2023-04-08T04:57:05;101776.63;;;8.68;100.00
28004;BME280;15330;51.234;6.754;2023-04-08T04:59:31;101782.34;;;8.63;100.00
28004;BME280;15330;51.234;6.754;2023-04-08T05:01:56;101782.81;;;8.68;100.00
28004;BME280;15330;51.234;6.754;2023-04-08T05:04:23;101775.53;;;8.70;100.00
28004;BME280;15330;51.234;6.754;2023-04-08T05:06:48;101786.66;;;8.75;100.00
28004;BME280;15330;51.234;6.754;2023-04-08T05:09:13;101780.88;;;8.70;100.00
28004;BME280;15330;51.234;6.754;2023-04-08T05:11:39;101786.50;;;8.56;100.00
28004;BME280;15330;51.234;6.754;2023-04-08T05:14:04;101780.53;;;8.64;100.00
28004;BME280;15330;51.234;6.754;2023-04-08T05:16:31;101775.25;;;8.73;100.00
28004;BME280;15330;51.234;6.754;2023-04-08T05:18:57;101786.34;;;8.69;100.00
28004;BME280;15330;51.234;6.754;2023-04-08T05:21:22;101788.47;;;8.75;100.00
28004;BME280;15330;51.234;6.754;2023-04-08T05:23:48;101790.41;;;8.73;100.00
28004;BME280;15330;51.234;6.754;2023-04-08T05:26:15;101790.69;;;8.70;100.00
28004;BME280;15330;51.234;6.754;2023-04-08T05:28:40;101782.41;;;8.73;100.00
28004;BME280;15330;51.234;6.754;2023-04-08T05:31:06;101800.69;;;8.57;100.00
28004;BME280;15330;51.234;6.754;2023-04-08T05:33:31;101797.56;;;8.72;100.00
28004;BME280;15330;51.234;6.754;2023-04-08T05:35:56;101793.69;;;8.76;100.00
28004;BME280;15330;51.234;6.754;2023-04-08T05:38:22;101800.97;;;8.74;100.00
28004;BME280;15330;51.234;6.754;2023-04-08T05:40:47;101808.00;;;8.75;100.00
28004;BME280;15330;51.234;6.754;2023-04-08T05:43:12;101813.66;;;8.61;100.00
28004;BME280;15330;51.234;6.754;2023-04-08T05:45:38;101811.13;;;8.49;100.00
28004;BME280;15330;51.234;6.754;2023-04-08T05:48:03;101820.06;;;8.59;100.00
28004;BME280;15330;51.234;6.754;2023-04-08T05:50:29;101817.19;;;8.82;100.00
28004;BME280;15330;51.234;6.754;2023-04-08T05:52:54;101813.84;;;9.01;100.00
28004;BME280;15330;51.234;6.754;2023-04-08T05:55:20;101827.16;;;9.33;100.00
28004;BME280;15330;51.234;6.754;2023-04-08T05:57:45;101829.22;;;9.50;100.00
28004;BME280;15330;51.234;6.754;2023-04-08T06:00:10;101832.16;;;9.47;100.00
28004;BME280;15330;51.234;6.754;2023-04-08T06:02:37;101831.53;;;9.34;100.00
28004;BME280;15330;51.234;6.754;2023-04-08T06:05:03;101826.63;;;9.39;100.00
28004;BME280;15330;51.234;6.754;2023-04-08T06:07:28;101839.38;;;9.56;100.00
28004;BME280;15330;51.234;6.754;2023-04-08T06:09:54;101833.22;;;9.66;100.00
28004;BME280;15330;51.234;6.754;2023-04-08T06:12:20;101840.16;;;9.27;100.00
28004;BME280;15330;51.234;6.754;2023-04-08T06:14:45;101835.22;;;9.64;100.00
28004;BME280;15330;51.234;6.754;2023-04-08T06:17:13;101840.00;;;9.70;100.00
28004;BME280;15330;51.234;6.754;2023-04-08T06:19:39;101845.34;;;9.70;100.00
28004;BME280;15330;51.234;6.754;2023-04-08T06:22:04;101846.25;;;9.80;100.00
28004;BME280;15330;51.234;6.754;2023-04-08T06:24:30;101848.44;;;9.65;100.00
28004;BME280;15330;51.234;6.754;2023-04-08T06:26:55;101853.50;;;9.68;100.00
28004;BME280;15330;51.234;6.754;2023-04-08T06:29:21;101855.59;;;9.85;100.00
28004;BME280;15330;51.234;6.754;2023-04-08T06:31:48;101860.06;;;9.85;100.00
28004;BME280;15330;51.234;6.754;2023-04-08T06:34:13;101860.69;;;9.98;100.00
28004;BME280;15330;51.234;6.754;2023-04-08T06:36:39;101865.91;;;10.00;100.00
28004;BME280;15330;51.234;6.754;2023-04-08T06:39:04;101863.94;;;10.02;100.00
28004;BME280;15330;51.234;6.754;2023-04-08T06:41:30;101861.09;;;9.42;100.00
28004;BME280;15330;51.234;6.754;2023-04-08T06:43:55;101865.28;;;9.66;100.00
28004;BME280;15330;51.234;6.754;2023-04-08T06:46:21;101862.72;;;9.54;100.00
28004;BME280;15330;51.234;6.754;2023-04-08T06:48:46;101865.63;;;9.31;100.00
28004;BME280;15330;51.234;6.754;2023-04-08T06:51:12;101870.06;;;9.20;100.00
28004;BME280;15330;51.234;6.754;2023-04-08T06:53:37;101876.50;;;9.18;100.00
28004;BME280;15330;51.234;6.754;2023-04-08T06:56:03;101876.28;;;9.10;100.00
28004;BME280;15330;51.234;6.754;2023-04-08T06:58:29;101882.66;;;8.87;100.00
28004;BME280;15330;51.234;6.754;2023-04-08T07:00:54;101871.97;;;8.98;100.00
28004;BME280;15330;51.234;6.754;2023-04-08T07:03:21;101877.91;;;9.01;100.00
28004;BME280;15330;51.234;6.754;2023-04-08T07:05:46;101886.22;;;9.08;100.00
28004;BME280;15330;51.234;6.754;2023-04-08T07:08:12;101883.69;;;9.06;100.00
28004;BME280;15330;51.234;6.754;2023-04-08T07:10:37;101879.13;;;8.97;100.00
28004;BME280;15330;51.234;6.754;2023-04-08T07:13:02;101887.44;;;9.04;100.00
28004;BME280;15330;51.234;6.754;2023-04-08T07:15:28;101884.53;;;9.07;100.00
28004;BME280;15330;51.234;6.754;2023-04-08T07:17:53;101887.31;;;9.05;100.00
28004;BME280;15330;51.234;6.754;2023-04-08T07:20:22;101891.44;;;9.09;100.00
28004;BME280;15330;51.234;6.754;2023-04-08T07:22:48;101892.06;;;9.13;100.00
28004;BME280;15330;51.234;6.754;2023-04-08T07:25:14;101894.16;;;9.30;100.00
28004;BME280;15330;51.234;6.754;2023-04-08T07:27:40;101891.31;;;9.43;100.00
28004;BME280;15330;51.234;6.754;2023-04-08T07:30:05;101890.78;;;9.49;100.00
28004;BME280;15330;51.234;6.754;2023-04-08T07:32:32;101896.00;;;9.50;100.00
28004;BME280;15330;51.234;6.754;2023-04-08T07:34:58;101898.34;;;9.44;100.00
28004;BME280;15330;51.234;6.754;2023-04-08T07:37:24;101903.53;;;8.93;100.00
28004;BME280;15330;51.234;6.754;2023-04-08T07:39:50;101898.03;;;8.94;100.00
28004;BME280;15330;51.234;6.754;2023-04-08T07:42:15;101906.09;;;9.15;100.00
28004;BME280;15330;51.234;6.754;2023-04-08T07:44:40;101903.97;;;8.98;100.00
28004;BME280;15330;51.234;6.754;2023-04-08T07:47:06;101920.03;;;9.18;100.00
28004;BME280;15330;51.234;6.754;2023-04-08T07:49:31;101922.34;;;8.91;100.00
28004;BME280;15330;51.234;6.754;2023-04-08T07:51:57;101922.44;;;8.90;100.00
28004;BME280;15330;51.234;6.754;2023-04-08T07:54:22;101924.16;;;8.79;100.00
28004;BME280;15330;51.234;6.754;2023-04-08T07:56:48;101930.56;;;8.99;100.00
28004;BME280;15330;51.234;6.754;2023-04-08T07:59:13;101927.53;;;9.25;100.00
28004;BME280;15330;51.234;6.754;2023-04-08T08:01:39;101935.72;;;9.12;100.00
28004;BME280;15330;51.234;6.754;2023-04-08T08:04:05;101938.50;;;9.22;100.00
28004;BME280;15330;51.234;6.754;2023-04-08T08:06:30;101934.94;;;9.32;100.00
28004;BME280;15330;51.234;6.754;2023-04-08T08:09:01;101934.44;;;8.95;100.00
28004;BME280;15330;51.234;6.754;2023-04-08T08:11:26;101937.59;;;8.89;100.00
28004;BME280;15330;51.234;6.754;2023-04-08T08:13:52;101946.94;;;8.83;100.00
28004;BME280;15330;51.234;6.754;2023-04-08T08:16:18;101945.84;;;8.86;100.00
28004;BME280;15330;51.234;6.754;2023-04-08T08:18:43;101955.75;;;9.06;100.00
28004;BME280;15330;51.234;6.754;2023-04-08T08:21:09;101955.28;;;9.12;100.00
28004;BME280;15330;51.234;6.754;2023-04-08T08:23:34;101966.44;;;8.95;100.00
28004;BME280;15330;51.234;6.754;2023-04-08T08:26:01;101970.13;;;9.26;100.00
28004;BME280;15330;51.234;6.754;2023-04-08T08:28:27;101967.97;;;9.20;100.00
28004;BME280;15330;51.234;6.754;2023-04-08T08:30:53;101968.25;;;9.06;100.00
28004;BME280;15330;51.234;6.754;2023-04-08T08:33:18;101968.34;;;8.61;100.00
28004;BME280;15330;51.234;6.754;2023-04-08T08:35:44;101970.59;;;8.99;100.00
28004;BME280;15330;51.234;6.754;2023-04-08T08:38:09;101968.78;;;8.89;100.00
28004;BME280;15330;51.234;6.754;2023-04-08T08:40:35;101978.38;;;8.46;100.00
28004;BME280;15330;51.234;6.754;2023-04-08T08:43:00;101974.47;;;8.73;100.00
28004;BME280;15330;51.234;6.754;2023-04-08T08:45:26;101969.03;;;8.86;100.00
28004;BME280;15330;51.234;6.754;2023-04-08T08:47:51;101970.59;;;8.99;100.00
28004;BME280;15330;51.234;6.754;2023-04-08T08:50:17;101971.94;;;8.82;100.00
28004;BME280;15330;51.234;6.754;2023-04-08T08:52:49;101966.97;;;8.89;100.00
28004;BME280;15330;51.234;6.754;2023-04-08T08:55:18;101971.31;;;9.01;100.00
28004;BME280;15330;51.234;6.754;2023-04-08T08:57:43;101969.94;;;9.07;100.00
28004;BME280;15330;51.234;6.754;2023-04-08T09:00:10;101967.38;;;9.16;100.00
28004;BME280;15330;51.234;6.754;2023-04-08T09:02:36;101963.84;;;9.16;100.00
28004;BME280;15330;51.234;6.754;2023-04-08T09:05:02;101970.72;;;8.87;100.00
28004;BME280;15330;51.234;6.754;2023-04-08T09:07:34;101979.97;;;8.49;100.00
28004;BME280;15330;51.234;6.754;2023-04-08T09:10:00;101978.03;;;8.51;100.00
28004;BME280;15330;51.234;6.754;2023-04-08T09:12:26;101983.22;;;8.64;100.00
28004;BME280;15330;51.234;6.754;2023-04-08T09:15:06;101982.34;;;8.86;100.00
28004;BME280;15330;51.234;6.754;2023-04-08T09:17:37;101982.97;;;8.89;100.00
28004;BME280;15330;51.234;6.754;2023-04-08T09:20:07;101988.06;;;8.92;100.00
28004;BME280;15330;51.234;6.754;2023-04-08T09:22:57;101976.53;;;9.03;100.00
28004;BME280;15330;51.234;6.754;2023-04-08T09:27:50;101979.03;;;9.15;100.00
28004;BME280;15330;51.234;6.754;2023-04-08T09:30:17;101979.91;;;9.05;100.00
28004;BME280;15330;51.234;6.754;2023-04-08T09:32:46;101988.94;;;9.25;100.00
28004;BME280;15330;51.234;6.754;2023-04-08T09:35:12;101991.81;;;8.90;100.00
28004;BME280;15330;51.234;6.754;2023-04-08T09:37:38;101994.69;;;9.09;100.00
28004;BME280;15330;51.234;6.754;2023-04-08T09:40:03;101999.41;;;9.16;100.00
28004;BME280;15330;51.234;6.754;2023-04-08T09:42:30;102001.41;;;9.35;100.00
28004;BME280;15330;51.234;6.754;2023-04-08T09:44:57;102000.69;;;8.90;100.00
28004;BME280;15330;51.234;6.754;2023-04-08T09:47:27;102008.03;;;9.20;100.00
28004;BME280;15330;51.234;6.754;2023-04-08T09:50:00;102001.59;;;9.23;100.00
28004;BME280;15330;51.234;6.754;2023-04-08T09:55:04;102008.75;;;9.65;100.00
28004;BME280;15330;51.234;6.754;2023-04-08T10:00:14;102012.84;;;9.90;100.00
28004;BME280;15330;51.234;6.754;2023-04-08T10:03:16;102020.59;;;9.72;100.00
28004;BME280;15330;51.234;6.754;2023-04-08T10:05:47;102014.63;;;10.01;100.00
28004;BME280;15330;51.234;6.754;2023-04-08T10:08:14;102012.84;;;9.90;100.00
28004;BME280;15330;51.234;6.754;2023-04-08T10:10:40;101999.97;;;9.95;100.00
28004;BME280;15330;51.234;6.754;2023-04-08T10:13:06;102006.41;;;10.13;100.00
28004;BME280;15330;51.234;6.754;2023-04-08T10:15:33;102000.44;;;10.21;100.00
28004;BME280;15330;51.234;6.754;2023-04-08T10:22:58;102011.19;;;10.61;100.00
28004;BME280;15330;51.234;6.754;2023-04-08T10:25:31;102004.22;;;10.49;100.00
28004;BME280;15330;51.234;6.754;2023-04-08T10:27:57;102003.72;;;10.55;100.00
28004;BME280;15330;51.234;6.754;2023-04-08T10:32:56;102002.09;;;10.73;100.00
28004;BME280;15330;51.234;6.754;2023-04-08T10:35:32;102003.94;;;10.82;100.00
28004;BME280;15330;51.234;6.754;2023-04-08T10:37:59;102003.03;;;11.12;100.00
28004;BME280;15330;51.234;6.754;2023-04-08T10:40:24;102006.22;;;11.85;100.00
28004;BME280;15330;51.234;6.754;2023-04-08T10:42:57;102011.16;;;11.99;100.00
28004;BME280;15330;51.234;6.754;2023-04-08T10:45:23;102008.38;;;11.02;100.00
28004;BME280;15330;51.234;6.754;2023-04-08T10:47:49;102003.97;;;10.52;100.00
28004;BME280;15330;51.234;6.754;2023-04-08T10:50:16;102016.41;;;11.02;100.00
28004;BME280;15330;51.234;6.754;2023-04-08T10:52:52;102006.69;;;11.11;100.00
28004;BME280;15330;51.234;6.754;2023-04-08T10:55:25;102000.47;;;11.80;100.00
28004;BME280;15330;51.234;6.754;2023-04-08T10:57:51;101999.81;;;12.34;100.00
28004;BME280;15330;51.234;6.754;2023-04-08T11:00:19;102002.56;;;11.86;100.00
28004;BME280;15330;51.234;6.754;2023-04-08T11:02:44;101997.22;;;12.79;98.57
28004;BME280;15330;51.234;6.754;2023-04-08T11:05:10;102005.91;;;13.28;96.10
28004;BME280;15330;51.234;6.754;2023-04-08T11:07:40;101992.47;;;13.63;93.73
28004;BME280;15330;51.234;6.754;2023-04-08T11:10:07;101995.50;;;14.55;90.27
28004;BME280;15330;51.234;6.754;2023-04-08T11:12:33;101983.19;;;14.27;88.96
28004;BME280;15330;51.234;6.754;2023-04-08T11:15:00;101980.34;;;14.03;89.79
28004;BME280;15330;51.234;6.754;2023-04-08T11:17:26;101976.94;;;13.39;90.76
28004;BME280;15330;51.234;6.754;2023-04-08T11:19:51;101974.34;;;13.65;90.69
28004;BME280;15330;51.234;6.754;2023-04-08T11:22:17;101968.44;;;13.26;89.88
28004;BME280;15330;51.234;6.754;2023-04-08T11:24:42;101971.06;;;12.81;91.48
28004;BME280;15330;51.234;6.754;2023-04-08T11:27:09;101965.53;;;13.10;89.31
28004;BME280;15330;51.234;6.754;2023-04-08T11:29:34;101972.31;;;12.86;89.26
28004;BME280;15330;51.234;6.754;2023-04-08T11:32:00;101964.66;;;13.09;90.66
28004;BME280;15330;51.234;6.754;2023-04-08T11:34:26;101960.28;;;12.91;88.35
28004;BME280;15330;51.234;6.754;2023-04-08T11:36:52;101968.34;;;13.18;88.08
28004;BME280;15330;51.234;6.754;2023-04-08T11:39:21;101967.81;;;12.50;86.85
28004;BME280;15330;51.234;6.754;2023-04-08T11:41:47;101973.66;;;12.73;87.28
28004;BME280;15330;51.234;6.754;2023-04-08T11:44:12;101966.38;;;12.19;85.19
28004;BME280;15330;51.234;6.754;2023-04-08T11:46:38;101969.19;;;12.17;86.58
28004;BME280;15330;51.234;6.754;2023-04-08T11:49:06;101979.41;;;11.46;84.61
28004;BME280;15330;51.234;6.754;2023-04-08T11:51:53;101976.28;;;12.08;84.82
28004;BME280;15330;51.234;6.754;2023-04-08T11:54:30;101978.03;;;11.81;82.66
28004;BME280;15330;51.234;6.754;2023-04-08T11:56:56;101988.16;;;11.87;80.40
28004;BME280;15330;51.234;6.754;2023-04-08T11:59:24;101977.00;;;11.53;79.36
28004;BME280;15330;51.234;6.754;2023-04-08T12:01:50;101978.84;;;11.71;78.38
28004;BME280;15330;51.234;6.754;2023-04-08T12:04:17;101981.69;;;11.51;76.97
28004;BME280;15330;51.234;6.754;2023-04-08T12:06:42;101978.28;;;11.20;71.73
28004;BME280;15330;51.234;6.754;2023-04-08T12:09:11;101974.34;;;11.62;71.37
28004;BME280;15330;51.234;6.754;2023-04-08T12:11:36;101979.28;;;11.48;71.30
28004;BME280;15330;51.234;6.754;2023-04-08T12:14:02;101991.25;;;11.34;72.41
28004;BME280;15330;51.234;6.754;2023-04-08T12:16:27;101986.75;;;11.44;73.60
28004;BME280;15330;51.234;6.754;2023-04-08T12:18:53;101993.78;;;11.26;70.97
28004;BME280;15330;51.234;6.754;2023-04-08T12:21:18;101993.34;;;10.71;71.09
28004;BME280;15330;51.234;6.754;2023-04-08T12:23:44;101998.94;;;10.58;72.37
28004;BME280;15330;51.234;6.754;2023-04-08T12:26:09;101989.91;;;10.29;73.15
28004;BME280;15330;51.234;6.754;2023-04-08T12:28:35;101996.88;;;10.72;73.58
28004;BME280;15330;51.234;6.754;2023-04-08T12:31:01;101995.56;;;10.56;73.36
28004;BME280;15330;51.234;6.754;2023-04-08T12:33:27;102003.34;;;10.18;74.82
28004;BME280;15330;51.234;6.754;2023-04-08T12:35:52;102002.63;;;10.67;76.00
28004;BME280;15330;51.234;6.754;2023-04-08T12:38:18;102001.66;;;9.96;76.88
28004;BME280;15330;51.234;6.754;2023-04-08T12:40:43;102003.78;;;10.44;77.36
28004;BME280;15330;51.234;6.754;2023-04-08T12:43:09;101998.06;;;10.48;77.72
28004;BME280;15330;51.234;6.754;2023-04-08T12:45:34;101997.38;;;10.56;77.86
28004;BME280;15330;51.234;6.754;2023-04-08T12:48:00;101994.38;;;10.49;78.70
28004;BME280;15330;51.234;6.754;2023-04-08T12:50:26;101995.31;;;10.39;79.49
28004;BME280;15330;51.234;6.754;2023-04-08T12:52:51;102001.03;;;10.24;80.09
28004;BME280;15330;51.234;6.754;2023-04-08T12:55:17;101999.63;;;10.60;79.81
28004;BME280;15330;51.234;6.754;2023-04-08T12:57:43;102001.09;;;10.74;81.02
28004;BME280;15330;51.234;6.754;2023-04-08T13:00:09;101996.59;;;10.75;81.00
28004;BME280;15330;51.234;6.754;2023-04-08T13:02:35;101997.47;;;10.45;81.99
28004;BME280;15330;51.234;6.754;2023-04-08T13:05:00;102000.28;;;10.43;82.73